Denver, Colorado
Current Conditions -  °F | °C
As of 5:58 PM on Saturday 25 Oct 2014 (Local Time) from KBKF Reporting Station
Clear Clear  
Wind Chill: 67°   Ceiling: Unl
Heat Index: 67°   Visibility: 10mi
Dew Point: 24°   Wind: 8mph
Humidity: 20%   Direction: 80°E
Pressure: 30.06"   Gusts: NA
Location:  39.74°N, 104.99°W
Report Text: KBKF 252358Z 08007KT 10SM CLR 20/M04 A3006 RMK AO2A SLP122 T01971043 10258 20197 57019
Loading
Personal Weather Stations






























Interactive Weather Map New forecast layout! Learn more

10-Day Weather Forecast

Advertisements
Track Severe Weather on mobile